Time;durP1;ratioP1;P1;durP2;ratioP2;P2;SDS_P1;SDS_P2;PMS_P1;PMS_P2;Temp;Humidity;BMP_temperature;BMP_pressure;BME280_temperature;BME280_humidity;BME280_pressure;Samples;Min_cycle;Max_cycle;Signal;HPM_P1;HPM_P2
2023/10/22 00:02:25;;;;;;;4.60;1.13;;;11.60;1.00;;;;;;4983447;28;20909;-66
2023/10/22 00:04:50;;;;;;;4.53;0.93;;;11.50;1.00;;;;;;4992388;28;20452;-66
2023/10/22 00:07:16;;;;;;;4.97;1.30;;;11.50;1.00;;;;;;4992200;28;20468;-66
2023/10/22 00:09:42;;;;;;;5.00;1.10;;;11.40;1.00;;;;;;4992697;28;20406;-66
2023/10/22 00:12:08;;;;;;;5.05;1.10;;;11.30;1.00;;;;;;4992355;28;20798;-66
2023/10/22 00:14:33;;;;;;;4.90;1.30;;;11.30;1.00;;;;;;4992002;28;20414;-66
2023/10/22 00:16:59;;;;;;;4.90;0.88;;;11.40;1.00;;;;;;4991925;28;20428;-66
2023/10/22 00:19:25;;;;;;;4.63;0.73;;;11.50;1.00;;;;;;5007246;28;20423;-66
2023/10/22 00:21:50;;;;;;;5.28;1.30;;;11.50;1.00;;;;;;4991572;28;20892;-67
2023/10/22 00:24:16;;;;;;;4.90;1.17;;;11.60;1.00;;;;;;4992137;28;20418;-66
2023/10/22 00:26:42;;;;;;;5.75;0.90;;;11.60;1.00;;;;;;4992606;28;20422;-66
2023/10/22 00:29:07;;;;;;;6.40;1.30;;;11.70;1.00;;;;;;4991821;28;20409;-67
2023/10/22 00:31:33;;;;;;;4.50;1.10;;;11.70;1.00;;;;;;4992084;28;20410;-66
2023/10/22 00:33:58;;;;;;;4.77;1.30;;;11.70;1.00;;;;;;4992206;28;20403;-66
2023/10/22 00:36:24;;;;;;;5.95;0.90;;;11.80;1.00;;;;;;4991554;28;20397;-66
2023/10/22 00:38:50;;;;;;;7.03;1.33;;;11.80;1.00;;;;;;4992042;28;20434;-66
2023/10/22 00:41:16;;;;;;;4.30;0.90;;;11.80;1.00;;;;;;4992002;28;20394;-66
2023/10/22 00:43:41;;;;;;;4.82;1.40;;;11.80;1.00;;;;;;4991268;28;20501;-66
2023/10/22 00:46:08;;;;;;;5.00;1.37;;;11.80;1.00;;;;;;4989786;28;20913;-66
2023/10/22 00:48:34;;;;;;;5.50;1.20;;;11.90;1.00;;;;;;4988329;28;20486;-66
2023/10/22 00:51:00;;;;;;;4.80;1.20;;;11.90;1.00;;;;;;4991423;28;20831;-66
2023/10/22 00:53:29;;;;;;;5.07;1.30;;;11.90;1.00;;;;;;4990151;28;20506;-66
2023/10/22 00:55:55;;;;;;;6.60;1.20;;;11.80;1.00;;;;;;4984259;28;20398;-66
2023/10/22 00:58:21;;;;;;;5.00;1.10;;;11.80;1.00;;;;;;4991239;28;20402;-66
2023/10/22 01:00:46;;;;;;;5.20;0.90;;;11.80;1.00;;;;;;4991472;28;20872;-66
2023/10/22 01:03:12;;;;;;;4.40;1.00;;;11.70;1.00;;;;;;4991565;28;20422;-66
2023/10/22 01:05:38;;;;;;;4.30;1.00;;;11.70;1.00;;;;;;4990015;28;20950;-66
2023/10/22 01:08:05;;;;;;;5.40;1.50;;;11.80;1.00;;;;;;4991751;28;20390;-67
2023/10/22 01:10:34;;;;;;;4.50;1.02;;;11.80;1.00;;;;;;4991285;28;20730;-66
2023/10/22 01:13:00;;;;;;;4.90;0.90;;;11.80;1.00;;;;;;4991008;28;20436;-66
2023/10/22 01:15:26;;;;;;;4.60;1.10;;;11.80;1.00;;;;;;4991573;28;20391;-66
2023/10/22 01:17:52;;;;;;;4.40;1.00;;;11.80;1.00;;;;;;4991586;28;20417;-66
2023/10/22 01:20:18;;;;;;;4.20;0.93;;;11.70;1.00;;;;;;4990889;28;20434;-66
2023/10/22 01:22:43;;;;;;;5.50;0.97;;;11.60;1.00;;;;;;4989159;28;20476;-66
2023/10/22 01:25:09;;;;;;;4.30;1.15;;;11.50;1.00;;;;;;4990256;28;20406;-66
2023/10/22 01:27:35;;;;;;;4.40;1.00;;;11.50;1.00;;;;;;4990744;28;20402;-66
2023/10/22 01:30:01;;;;;;;4.87;1.07;;;11.50;1.00;;;;;;4991499;28;20398;-66
2023/10/22 01:32:30;;;;;;;4.60;0.90;;;11.60;1.00;;;;;;4990608;28;20406;-66
2023/10/22 01:34:57;;;;;;;4.70;1.17;;;11.60;1.00;;;;;;4986804;28;20544;-66
2023/10/22 01:37:23;;;;;;;3.90;0.80;;;11.60;1.00;;;;;;4979371;28;20420;-66
2023/10/22 01:39:49;;;;;;;8.02;1.05;;;11.60;1.00;;;;;;4990773;28;20409;-66
2023/10/22 01:42:14;;;;;;;4.20;0.98;;;11.60;1.00;;;;;;4990515;28;20422;-66
2023/10/22 01:44:40;;;;;;;4.50;1.20;;;11.70;1.00;;;;;;4990841;28;20486;-66
2023/10/22 01:47:05;;;;;;;6.47;1.20;;;11.80;1.00;;;;;;4990656;28;20402;-66
2023/10/22 01:49:32;;;;;;;4.63;1.40;;;11.80;1.00;;;;;;4990815;28;20403;-66
2023/10/22 01:51:57;;;;;;;5.00;1.00;;;11.80;1.00;;;;;;4989957;28;20833;-67
2023/10/22 01:54:23;;;;;;;4.50;0.90;;;11.70;1.00;;;;;;4988222;28;20445;-66
2023/10/22 01:56:49;;;;;;;4.40;0.90;;;11.70;1.00;;;;;;4989753;28;20837;-66
2023/10/22 01:59:15;;;;;;;4.30;1.10;;;11.70;1.00;;;;;;4990453;28;20402;-66
2023/10/22 02:01:42;;;;;;;4.47;1.00;;;11.70;1.00;;;;;;4989192;28;20410;-66
2023/10/22 02:04:08;;;;;;;5.40;1.20;;;11.70;1.00;;;;;;4990231;28;20493;-66
2023/10/22 02:06:34;;;;;;;5.80;1.20;;;11.70;1.00;;;;;;4991087;28;20409;-66
2023/10/22 02:09:00;;;;;;;7.03;1.87;;;11.80;1.00;;;;;;4989766;28;20410;-66
2023/10/22 02:11:26;;;;;;;4.18;0.80;;;11.70;1.00;;;;;;4990212;28;20402;-66
2023/10/22 02:13:52;;;;;;;5.10;1.10;;;11.60;1.00;;;;;;4989960;28;20428;-66
2023/10/22 02:16:18;;;;;;;4.97;1.07;;;11.50;1.00;;;;;;4990041;28;20399;-66
2023/10/22 02:18:44;;;;;;;4.68;1.17;;;11.50;1.00;;;;;;4990047;28;20402;-66
2023/10/22 02:21:10;;;;;;;7.90;0.90;;;11.50;1.00;;;;;;4990006;28;20421;-66
2023/10/22 02:23:35;;;;;;;5.10;1.30;;;11.50;1.00;;;;;;4990231;28;20433;-66
2023/10/22 02:26:01;;;;;;;5.40;1.20;;;11.50;1.00;;;;;;4990458;28;20485;-66
2023/10/22 02:28:27;;;;;;;4.90;1.20;;;11.60;1.00;;;;;;4988419;28;20411;-66
2023/10/22 02:30:52;;;;;;;5.70;1.20;;;11.50;1.00;;;;;;4975681;28;20496;-66
2023/10/22 02:33:18;;;;;;;6.70;1.07;;;11.50;1.00;;;;;;4989506;28;20862;-66
2023/10/22 02:35:44;;;;;;;7.00;0.90;;;11.40;1.00;;;;;;4988533;28;20425;-66
2023/10/22 02:38:13;;;;;;;5.20;1.10;;;11.50;1.00;;;;;;4989354;28;20407;-66
2023/10/22 02:40:38;;;;;;;4.28;0.90;;;11.50;1.00;;;;;;4989482;28;20394;-66
2023/10/22 02:43:05;;;;;;;4.30;0.77;;;11.50;1.00;;;;;;4987976;28;20979;-66
2023/10/22 02:45:30;;;;;;;4.20;0.80;;;11.40;1.00;;;;;;4987013;28;20425;-66
2023/10/22 02:47:58;;;;;;;4.90;1.20;;;11.40;1.00;;;;;;4989705;28;20915;-66
2023/10/22 02:50:24;;;;;;;5.20;1.30;;;11.30;1.00;;;;;;4989832;28;20477;-66
2023/10/22 02:52:50;;;;;;;4.45;0.90;;;11.40;1.00;;;;;;4989628;28;20457;-66
2023/10/22 02:55:16;;;;;;;4.57;0.95;;;11.30;1.00;;;;;;4988996;28;20465;-66
2023/10/22 02:57:41;;;;;;;4.70;0.90;;;11.30;1.00;;;;;;4987957;28;20410;-66
2023/10/22 03:00:10;;;;;;;5.22;0.90;;;11.30;1.00;;;;;;4976364;28;20437;-66
2023/10/22 03:02:40;;;;;;;8.80;1.20;;;11.40;1.00;;;;;;4990435;28;20433;-66
2023/10/22 03:05:06;;;;;;;4.68;0.90;;;11.40;1.00;;;;;;4989573;28;20405;-65
2023/10/22 03:07:32;;;;;;;4.25;0.95;;;11.50;1.00;;;;;;4989138;28;20442;-66
2023/10/22 03:09:58;;;;;;;4.50;0.90;;;11.50;1.00;;;;;;4989967;28;20474;-66
2023/10/22 03:12:23;;;;;;;3.90;0.70;;;11.40;1.00;;;;;;4989907;28;20421;-65
2023/10/22 03:14:52;;;;;;;4.97;1.20;;;11.40;1.00;;;;;;4989392;28;20414;-65
2023/10/22 03:17:19;;;;;;;5.20;1.40;;;11.30;1.00;;;;;;4989333;28;20395;-66
2023/10/22 03:19:45;;;;;;;6.97;1.38;;;11.30;1.00;;;;;;4988957;28;20461;-66
2023/10/22 03:22:11;;;;;;;7.25;1.45;;;11.40;1.00;;;;;;4989470;28;20506;-66
2023/10/22 03:24:36;;;;;;;4.93;1.13;;;11.40;1.00;;;;;;4989417;28;20390;-66
2023/10/22 03:27:05;;;;;;;4.50;1.07;;;11.40;1.00;;;;;;4989023;28;20425;-66
2023/10/22 03:29:32;;;;;;;4.07;0.70;;;11.40;1.00;;;;;;4970454;28;20743;-66
2023/10/22 03:31:58;;;;;;;9.48;1.05;;;11.40;1.00;;;;;;4987279;28;20415;-66
2023/10/22 03:34:24;;;;;;;4.20;0.80;;;11.50;1.00;;;;;;4987859;28;20406;-66
2023/10/22 03:36:50;;;;;;;5.10;1.15;;;11.40;1.00;;;;;;4988414;28;20490;-66
2023/10/22 03:39:17;;;;;;;4.63;1.10;;;11.40;1.00;;;;;;4989126;28;20517;-66
2023/10/22 03:41:43;;;;;;;4.70;1.17;;;11.30;1.00;;;;;;4989453;28;20442;-66
2023/10/22 03:44:09;;;;;;;5.80;1.00;;;11.40;1.00;;;;;;4989360;28;20512;-67
2023/10/22 03:46:35;;;;;;;4.80;0.73;;;11.30;1.00;;;;;;4989608;28;20399;-66
2023/10/22 03:49:00;;;;;;;4.60;0.90;;;11.30;1.00;;;;;;4989126;28;20935;-66
2023/10/22 03:51:26;;;;;;;4.53;0.90;;;11.30;1.00;;;;;;4986323;28;20955;-66
2023/10/22 03:53:56;;;;;;;4.88;0.68;;;11.20;99.90;;;;;;4969683;28;20485;-66
2023/10/22 03:56:22;;;;;;;4.10;0.80;;;11.20;99.90;;;;;;4979747;28;20410;-66
2023/10/22 03:58:48;;;;;;;3.97;0.70;;;11.10;99.90;;;;;;4989276;28;20985;-66
2023/10/22 04:01:13;;;;;;;4.50;1.10;;;11.10;1.00;;;;;;4988963;28;20501;-66
2023/10/22 04:03:39;;;;;;;4.95;0.80;;;11.00;1.00;;;;;;4988781;28;20414;-66
2023/10/22 04:06:04;;;;;;;4.22;0.82;;;11.00;1.00;;;;;;4988837;28;20907;-66
2023/10/22 04:08:30;;;;;;;4.40;0.83;;;11.10;1.00;;;;;;4988537;28;20402;-66
2023/10/22 04:10:56;;;;;;;4.18;1.00;;;11.00;1.00;;;;;;4988443;28;20824;-66
2023/10/22 04:13:22;;;;;;;5.60;1.37;;;10.90;1.00;;;;;;4985646;28;20414;-66
2023/10/22 04:15:48;;;;;;;4.40;0.82;;;10.90;1.00;;;;;;4988801;28;20489;-65
2023/10/22 04:18:14;;;;;;;4.38;0.90;;;10.90;1.00;;;;;;4988701;28;20481;-66
2023/10/22 04:20:40;;;;;;;4.40;0.90;;;11.00;1.00;;;;;;4982423;28;20802;-66
2023/10/22 04:23:08;;;;;;;4.05;0.70;;;10.90;1.00;;;;;;4985135;28;20972;-66
2023/10/22 04:25:40;;;;;;;4.13;0.60;;;10.90;1.00;;;;;;4990741;28;20457;-66
2023/10/22 04:28:07;;;;;;;6.10;0.90;;;11.00;1.00;;;;;;4993056;28;20430;-66
2023/10/22 04:30:35;;;;;;;4.10;0.80;;;11.00;1.00;;;;;;4992808;28;20567;-66
2023/10/22 04:33:01;;;;;;;4.60;0.90;;;11.00;1.00;;;;;;4992271;28;20430;-66
2023/10/22 04:35:27;;;;;;;4.60;0.80;;;11.00;1.00;;;;;;4991956;28;20469;-66
2023/10/22 04:37:55;;;;;;;8.80;1.00;;;11.00;1.00;;;;;;4991729;28;20593;-65
2023/10/22 04:40:20;;;;;;;4.40;1.00;;;11.00;1.00;;;;;;4991971;28;20493;-65
2023/10/22 04:42:46;;;;;;;5.72;0.93;;;11.10;1.00;;;;;;4991964;28;20562;-66
2023/10/22 04:45:12;;;;;;;4.30;0.80;;;11.10;1.00;;;;;;4991696;28;20399;-66
2023/10/22 04:47:37;;;;;;;4.15;0.70;;;11.10;99.90;;;;;;4988466;28;20416;-66
2023/10/22 04:50:04;;;;;;;5.10;1.00;;;11.10;99.90;;;;;;4974622;28;20439;-66
2023/10/22 04:52:33;;;;;;;3.70;0.50;;;11.20;99.90;;;;;;4991385;28;20753;-66
2023/10/22 04:54:59;;;;;;;4.10;0.80;;;11.20;99.90;;;;;;4991367;28;20414;-66
2023/10/22 04:57:26;;;;;;;6.00;1.00;;;11.10;99.90;;;;;;4991287;28;20560;-66
2023/10/22 04:59:52;;;;;;;4.20;0.70;;;11.10;99.90;;;;;;4991606;28;20416;-66
2023/10/22 05:02:18;;;;;;;5.32;0.93;;;11.10;99.90;;;;;;4982189;28;20541;-66
2023/10/22 05:04:47;;;;;;;4.30;0.80;;;11.00;99.90;;;;;;4991450;28;20442;-66
2023/10/22 05:07:13;;;;;;;3.95;0.60;;;11.00;99.90;;;;;;4989717;28;20717;-66
2023/10/22 05:09:39;;;;;;;4.30;0.90;;;11.10;99.90;;;;;;4990234;28;20432;-67
2023/10/22 05:12:05;;;;;;;5.18;0.77;;;11.00;99.90;;;;;;4992327;28;20869;-66
2023/10/22 05:14:31;;;;;;;4.00;0.60;;;11.10;99.90;;;;;;4992191;28;20478;-66
2023/10/22 05:16:57;;;;;;;4.00;0.50;;;11.10;99.90;;;;;;4991884;28;20477;-66
2023/10/22 05:19:22;;;;;;;4.30;0.88;;;11.00;99.90;;;;;;4979873;28;20405;-66
2023/10/22 05:21:48;;;;;;;4.00;0.70;;;11.00;99.90;;;;;;4991154;28;20429;-66
2023/10/22 05:24:13;;;;;;;4.40;0.90;;;10.90;99.90;;;;;;4987721;28;20416;-66
2023/10/22 05:26:39;;;;;;;4.22;0.70;;;10.80;99.90;;;;;;4972068;28;20467;-66
2023/10/22 05:29:06;;;;;;;4.13;0.63;;;10.80;99.90;;;;;;4984852;28;20433;-66
2023/10/22 05:31:32;;;;;;;4.22;0.98;;;10.80;99.90;;;;;;4989403;28;20411;-66
2023/10/22 05:33:57;;;;;;;3.83;0.53;;;10.80;99.90;;;;;;4989701;28;20395;-66
2023/10/22 05:36:24;;;;;;;4.57;0.70;;;10.80;99.90;;;;;;4990119;28;20476;-66
2023/10/22 05:38:50;;;;;;;8.10;1.10;;;10.70;99.90;;;;;;4991011;28;20421;-66
2023/10/22 05:41:23;;;;;;;3.75;0.47;;;10.80;99.90;;;;;;4991258;28;20394;-66
2023/10/22 05:43:56;;;;;;;4.35;0.52;;;10.80;99.90;;;;;;4991113;28;20525;-66
2023/10/22 05:46:28;;;;;;;5.10;0.60;;;10.80;99.90;;;;;;4990921;28;20421;-66
2023/10/22 05:48:53;;;;;;;4.03;0.63;;;10.80;99.90;;;;;;4990948;28;20443;-66
2023/10/22 05:51:19;;;;;;;4.57;0.97;;;10.80;99.90;;;;;;4990569;28;20390;-66
2023/10/22 05:53:45;;;;;;;4.03;0.65;;;10.90;99.90;;;;;;4986517;28;20437;-66
2023/10/22 05:56:10;;;;;;;4.10;0.40;;;10.90;99.90;;;;;;4987316;28;20820;-66
2023/10/22 05:58:38;;;;;;;4.00;0.65;;;10.80;99.90;;;;;;4989842;28;20398;-67
2023/10/22 06:01:03;;;;;;;4.03;0.70;;;10.90;99.90;;;;;;4988838;28;20406;-66
2023/10/22 06:03:28;;;;;;;4.00;0.53;;;10.80;99.90;;;;;;4988961;28;20764;-66
2023/10/22 06:05:54;;;;;;;4.20;0.60;;;10.90;99.90;;;;;;4984487;28;20418;-66
2023/10/22 06:08:20;;;;;;;7.93;1.17;;;11.00;9.80;;;;;;4977506;28;20420;-66
2023/10/22 06:10:48;;;;;;;6.00;0.97;;;10.90;1.00;;;;;;4986931;28;20485;-66
2023/10/22 06:13:14;;;;;;;4.22;0.68;;;11.00;1.00;;;;;;4987490;28;20427;-67
2023/10/22 06:15:42;;;;;;;4.40;0.80;;;11.10;1.00;;;;;;4988889;28;20402;-66
2023/10/22 06:18:08;;;;;;;3.90;0.50;;;11.10;1.00;;;;;;4990021;28;20474;-66
2023/10/22 06:20:34;;;;;;;5.30;0.60;;;11.10;1.00;;;;;;4984276;28;20453;-66
2023/10/22 06:23:01;;;;;;;4.32;0.90;;;11.00;1.00;;;;;;4988100;28;20778;-66
2023/10/22 06:25:27;;;;;;;4.50;0.52;;;11.00;1.00;;;;;;4989013;28;20505;-66
2023/10/22 06:27:57;;;;;;;4.40;0.60;;;11.10;1.00;;;;;;4988522;28;20498;-66
2023/10/22 06:30:23;;;;;;;10.10;1.00;;;11.20;1.00;;;;;;4974027;28;20397;-66
2023/10/22 06:32:53;;;;;;;3.95;0.40;;;11.20;1.00;;;;;;4970492;28;20439;-66
2023/10/22 06:35:23;;;;;;;7.10;0.60;;;11.30;99.90;;;;;;4979703;28;20453;-66
2023/10/22 06:37:52;;;;;;;3.97;0.50;;;11.40;1.00;;;;;;4990247;28;20400;-66
2023/10/22 06:40:19;;;;;;;4.72;0.70;;;11.60;1.00;;;;;;4978173;28;20415;-66
2023/10/22 06:42:45;;;;;;;5.40;0.70;;;12.10;43.70;;;;;;4977757;28;20453;-67
2023/10/22 06:45:11;;;;;;;7.72;0.82;;;12.70;1.00;;;;;;4978440;28;20505;-66
2023/10/22 06:47:37;;;;;;;4.40;0.70;;;13.50;99.90;;;;;;4976353;28;20489;-67
2023/10/22 06:50:11;;;;;;;4.50;0.70;;;14.10;32.10;;;;;;4972091;28;20417;-67
2023/10/22 06:52:37;;;;;;;4.93;0.90;;;14.70;99.90;;;;;;4977230;28;20406;-66
2023/10/22 06:55:03;;;;;;;4.80;0.60;;;14.90;99.90;;;;;;4978678;28;20878;-67
2023/10/22 06:57:28;;;;;;;5.10;0.60;;;15.10;99.90;;;;;;4976809;28;20410;-67
2023/10/22 06:59:56;;;;;;;5.60;0.70;;;15.30;16.50;;;;;;4978314;28;20787;-67
2023/10/22 07:02:23;;;;;;;4.40;0.60;;;15.90;1.00;;;;;;4977195;28;20428;-67
2023/10/22 07:04:52;;;;;;;6.00;0.80;;;16.50;1.00;;;;;;4990003;28;20418;-67
2023/10/22 07:07:18;;;;;;;5.00;0.85;;;17.00;1.00;;;;;;4977910;28;20437;-67
2023/10/22 07:09:45;;;;;;;4.63;0.70;;;16.80;1.00;;;;;;4977276;28;20429;-68
2023/10/22 07:12:10;;;;;;;4.57;0.70;;;18.00;1.00;;;;;;4980380;28;20414;-68
2023/10/22 07:14:36;;;;;;;5.10;1.00;;;18.70;1.00;;;;;;4985555;28;20557;-67
2023/10/22 07:17:02;;;;;;;4.30;0.50;;;19.20;99.90;;;;;;4983292;28;20781;-67
2023/10/22 07:19:28;;;;;;;4.68;0.90;;;19.40;99.90;;;;;;4980288;28;20434;-67
2023/10/22 07:21:54;;;;;;;6.72;1.15;;;20.00;99.90;;;;;;4984009;28;20417;-67
2023/10/22 07:24:19;;;;;;;5.40;0.70;;;20.30;99.90;;;;;;4981240;28;20442;-67
2023/10/22 07:26:45;;;;;;;5.80;0.90;;;20.40;99.90;;;;;;4978812;28;20418;-67
2023/10/22 07:29:12;;;;;;;4.87;0.70;;;20.70;99.90;;;;;;4982133;28;20484;-67
2023/10/22 07:31:38;;;;;;;5.20;0.80;;;21.00;99.90;;;;;;4978191;28;20871;-68
2023/10/22 07:34:03;;;;;;;5.95;0.60;;;21.10;99.90;;;;;;4987097;28;20440;-68
2023/10/22 07:36:29;;;;;;;4.50;0.50;;;20.70;99.90;;;;;;4975409;28;20776;-67
2023/10/22 07:38:54;;;;;;;5.07;0.90;;;20.40;99.90;;;;;;4984915;28;20429;-67
2023/10/22 07:41:20;;;;;;;4.50;0.60;;;20.80;99.90;;;;;;4976110;28;20901;-67
2023/10/22 07:43:46;;;;;;;5.40;0.70;;;21.30;99.90;;;;;;4983868;28;21320;-67
2023/10/22 07:46:14;;;;;;;5.50;0.60;;;21.30;99.90;;;;;;4987174;28;20912;-67
2023/10/22 07:48:41;;;;;;;4.30;0.60;;;20.90;99.90;;;;;;4988644;28;20881;-67
2023/10/22 07:51:18;;;;;;;4.22;0.43;;;20.90;99.90;;;;;;4984363;28;20500;-67
2023/10/22 07:53:45;;;;;;;4.50;0.70;;;;;;;;;;4974953;28;20416;-67
2023/10/22 07:56:11;;;;;;;4.50;0.60;;;;;;;;;;4983303;28;20759;-68
2023/10/22 07:58:38;;;;;;;4.60;0.50;;;;;;;;;;4990994;28;20398;-68
2023/10/22 08:01:06;;;;;;;5.40;0.80;;;;;;;;;;4992823;28;20832;-74
2023/10/22 08:03:32;;;;;;;4.35;0.50;;;;;;;;;;5002792;28;20562;-74
2023/10/22 08:05:58;;;;;;;4.20;0.40;;;21.60;99.90;;;;;;4981703;28;20493;-74
2023/10/22 08:08:24;;;;;;;4.90;0.90;;;21.50;99.90;;;;;;4980359;28;20414;-74
2023/10/22 08:10:50;;;;;;;4.30;0.60;;;21.30;99.90;;;;;;4986220;28;20413;-72
2023/10/22 08:13:18;;;;;;;4.88;0.90;;;21.20;99.90;;;;;;4986453;28;20420;-74
2023/10/22 08:15:44;;;;;;;6.70;0.70;;;21.60;99.90;;;;;;4989689;28;20414;-74
2023/10/22 08:18:09;;;;;;;5.40;1.40;;;21.70;99.90;;;;;;4987661;28;20437;-73
2023/10/22 08:20:35;;;;;;;5.00;0.70;;;21.80;99.90;;;;;;4986917;28;20737;-75
2023/10/22 08:23:01;;;;;;;4.30;0.60;;;21.70;99.90;;;;;;4991633;28;20428;-73
2023/10/22 08:25:27;;;;;;;5.57;0.50;;;21.40;99.90;;;;;;4988005;28;20906;-74
2023/10/22 08:27:54;;;;;;;5.50;0.90;;;21.50;99.90;;;;;;4981880;28;20490;-73
2023/10/22 08:30:22;;;;;;;4.90;0.70;;;22.10;99.90;;;;;;4991579;28;20842;-73
2023/10/22 08:32:50;;;;;;;5.40;0.70;;;22.60;99.90;;;;;;4989093;28;20967;-74
2023/10/22 08:35:16;;;;;;;4.40;0.50;;;23.20;99.90;;;;;;4990155;28;20495;-74
2023/10/22 08:37:42;;;;;;;5.90;0.87;;;23.20;99.90;;;;;;4987562;28;20504;-73
2023/10/22 08:40:08;;;;;;;4.70;0.73;;;22.90;99.90;;;;;;4980673;28;20460;-74
2023/10/22 08:42:35;;;;;;;5.78;0.70;;;22.10;99.90;;;;;;4987718;28;20427;-74
2023/10/22 08:45:02;;;;;;;4.60;0.80;;;22.80;99.90;;;;;;4992134;28;20891;-74
2023/10/22 08:47:31;;;;;;;5.00;0.70;;;22.50;99.90;;;;;;4992403;28;20433;-74
2023/10/22 08:49:58;;;;;;;5.00;0.50;;;22.30;99.90;;;;;;4976741;28;20418;-74
2023/10/22 08:52:24;;;;;;;4.80;0.60;;;22.20;99.90;;;;;;4991363;28;20413;-74
2023/10/22 08:54:51;;;;;;;4.63;0.70;;;22.20;99.90;;;;;;4989689;28;20422;-74
2023/10/22 08:57:20;;;;;;;6.00;0.70;;;22.60;99.90;;;;;;4990998;28;20528;-74
2023/10/22 08:59:48;;;;;;;4.50;0.60;;;22.40;99.90;;;;;;4984721;28;20429;-73
2023/10/22 09:02:21;;;;;;;5.22;0.80;;;22.00;99.90;;;;;;4991547;28;20414;-73
2023/10/22 09:04:48;;;;;;;4.40;0.50;;;21.80;99.90;;;;;;4994477;28;20473;-74
2023/10/22 09:07:16;;;;;;;5.00;0.80;;;22.70;99.90;;;;;;5007268;28;20416;-74
2023/10/22 09:09:43;;;;;;;5.50;0.60;;;23.60;99.90;;;;;;4981396;28;20415;-73
2023/10/22 09:12:10;;;;;;;5.40;0.73;;;23.90;99.90;;;;;;4983096;28;20392;-74
2023/10/22 09:14:36;;;;;;;4.80;0.90;;;24.00;99.90;;;;;;4988001;28;20496;-74
2023/10/22 09:17:35;;;;;;;6.28;0.82;;;23.80;99.90;;;;;;4992736;28;20481;-74
2023/10/22 09:20:00;;;;;;;5.93;1.30;;;23.50;99.90;;;;;;4983115;28;20440;-74
2023/10/22 09:22:27;;;;;;;6.10;0.83;;;23.20;99.90;;;;;;4990935;28;20509;-74
2023/10/22 09:24:56;;;;;;;4.88;0.70;;;23.30;99.90;;;;;;4990326;28;20441;-74
2023/10/22 09:27:27;;;;;;;5.00;0.70;;;23.20;99.90;;;;;;4991678;28;20535;-74
2023/10/22 09:29:54;;;;;;;5.18;0.80;;;23.70;99.90;;;;;;4991581;28;20387;-74
2023/10/22 09:32:20;;;;;;;5.78;0.60;;;23.90;99.90;;;;;;4991929;28;20920;-74
2023/10/22 09:34:46;;;;;;;5.38;0.70;;;24.30;99.90;;;;;;4992923;28;20749;-75
2023/10/22 09:37:13;;;;;;;4.80;0.70;;;23.90;99.90;;;;;;4993537;28;20402;-73
2023/10/22 09:39:42;;;;;;;5.90;1.00;;;24.10;99.90;;;;;;4992700;28;20431;-74
2023/10/22 09:42:10;;;;;;;5.07;0.70;;;24.60;99.90;;;;;;4992430;28;20777;-73
2023/10/22 09:44:46;;;;;;;6.37;0.67;;;24.60;99.90;;;;;;4992933;28;20908;-73
2023/10/22 09:47:20;;;;;;;5.45;0.75;;;23.20;99.90;;;;;;4991492;28;20426;-71
2023/10/22 09:49:51;;;;;;;6.18;0.80;;;23.70;99.90;;;;;;4992257;28;20390;-72
2023/10/22 09:52:21;;;;;;;6.95;0.70;;;24.40;99.90;;;;;;4991129;28;20410;-74
2023/10/22 09:54:50;;;;;;;10.98;1.00;;;23.70;99.90;;;;;;4991469;28;20892;-73
2023/10/22 09:57:18;;;;;;;4.85;0.40;;;24.00;99.90;;;;;;4987375;28;20448;-73
2023/10/22 09:59:45;;;;;;;6.70;1.10;;;23.90;99.90;;;;;;4977470;28;20415;-73
2023/10/22 10:02:17;;;;;;;8.05;0.88;;;23.20;99.90;;;;;;4990859;28;20421;-69
2023/10/22 10:04:43;;;;;;;6.80;0.98;;;22.90;99.90;;;;;;4979379;28;20960;-74
2023/10/22 10:07:10;;;;;;;4.70;0.50;;;23.00;99.90;;;;;;4992269;28;20773;-74
2023/10/22 10:09:36;;;;;;;4.80;0.90;;;22.10;99.90;;;;;;4991762;28;20390;-74
2023/10/22 10:12:08;;;;;;;6.30;0.60;;;22.80;99.90;;;;;;4987505;28;20410;-74
2023/10/22 10:14:45;;;;;;;4.90;0.70;;;23.30;99.90;;;;;;4991945;28;20411;-74
2023/10/22 10:17:13;;;;;;;7.78;1.20;;;23.10;99.90;;;;;;4991005;28;20395;-74
2023/10/22 10:19:38;;;;;;;5.80;0.60;;;22.70;99.90;;;;;;4991386;28;20971;-73
2023/10/22 10:22:05;;;;;;;5.60;0.70;;;23.20;99.90;;;;;;4986355;28;20463;-73
2023/10/22 10:24:32;;;;;;;5.13;0.77;;;23.20;99.90;;;;;;4988397;28;20406;-73
2023/10/22 10:26:58;;;;;;;4.60;0.95;;;23.40;99.90;;;;;;4984886;28;20393;-71
2023/10/22 10:29:29;;;;;;;4.57;0.88;;;22.50;99.90;;;;;;4990146;28;20896;-71
2023/10/22 10:32:18;;;;;;;5.20;0.80;;;21.90;99.90;;;;;;4989831;28;20418;-73
2023/10/22 10:34:49;;;;;;;7.90;0.80;;;20.50;99.90;;;;;;4975927;28;20445;-74
2023/10/22 10:37:20;;;;;;;5.40;0.87;;;20.40;99.90;;;;;;4988211;28;20469;-74
2023/10/22 10:39:46;;;;;;;4.50;0.60;;;20.20;99.90;;;;;;4985235;28;20824;-73
2023/10/22 10:42:36;;;;;;;7.80;0.90;;;19.80;99.90;;;;;;4986577;28;20419;-73
2023/10/22 10:45:03;;;;;;;4.82;0.60;;;19.40;99.90;;;;;;4980509;28;20417;-73
2023/10/22 10:47:34;;;;;;;5.27;0.80;;;19.20;99.90;;;;;;4982914;28;20422;-69
2023/10/22 10:50:03;;;;;;;6.30;0.70;;;19.20;99.90;;;;;;4985787;28;20505;-69
2023/10/22 10:52:49;;;;;;;5.55;0.90;;;19.30;99.90;;;;;;4987513;28;20446;-69
2023/10/22 10:55:14;;;;;;;4.97;0.63;;;19.20;99.90;;;;;;4983824;28;20429;-69
2023/10/22 10:57:47;;;;;;;4.40;0.50;;;19.50;99.90;;;;;;4985579;28;20414;-69
2023/10/22 11:00:20;;;;;;;4.82;1.10;;;19.60;99.90;;;;;;4986407;28;20449;-69
2023/10/22 11:02:50;;;;;;;4.20;0.40;;;19.60;99.90;;;;;;4985026;28;20461;-69
2023/10/22 11:05:18;;;;;;;4.83;0.70;;;19.20;99.90;;;;;;4987252;28;20434;-69
2023/10/22 11:07:44;;;;;;;4.90;1.00;;;19.20;99.90;;;;;;4986007;28;20501;-68
2023/10/22 11:10:15;;;;;;;5.90;0.90;;;19.40;99.90;;;;;;4988166;28;20862;-69
2023/10/22 11:12:42;;;;;;;6.13;0.70;;;19.40;99.90;;;;;;4988091;28;20754;-68
2023/10/22 11:15:10;;;;;;;4.32;0.40;;;20.10;99.90;;;;;;4976852;28;20441;-69
2023/10/22 11:17:37;;;;;;;5.13;0.60;;;19.80;99.90;;;;;;4988677;28;20387;-68
2023/10/22 11:20:04;;;;;;;4.38;0.60;;;19.70;99.90;;;;;;4986975;28;20797;-68
2023/10/22 11:22:31;;;;;;;5.50;0.70;;;20.00;99.90;;;;;;4988105;28;20553;-68
2023/10/22 11:24:58;;;;;;;4.40;0.52;;;20.00;99.90;;;;;;4982506;28;20445;-68
2023/10/22 11:27:24;;;;;;;6.35;0.70;;;20.30;99.90;;;;;;4982415;28;20501;-68
2023/10/22 11:29:50;;;;;;;8.60;0.90;;;20.10;99.90;;;;;;4989845;28;20497;-69
2023/10/22 11:32:17;;;;;;;5.50;0.70;;;20.10;99.90;;;;;;4991701;28;20459;-69
2023/10/22 11:34:49;;;;;;;4.50;0.50;;;20.00;99.90;;;;;;4989772;28;20425;-69
2023/10/22 11:37:18;;;;;;;4.75;0.50;;;20.40;99.90;;;;;;4992564;28;20446;-69
2023/10/22 11:39:44;;;;;;;4.50;0.50;;;20.50;99.90;;;;;;4990510;28;20425;-69
2023/10/22 11:42:11;;;;;;;4.93;0.90;;;20.80;99.90;;;;;;4989169;28;20422;-69
2023/10/22 11:44:36;;;;;;;6.60;0.90;;;21.00;99.90;;;;;;4992452;28;20464;-69
2023/10/22 11:47:24;;;;;;;4.90;0.70;;;20.80;99.90;;;;;;4992540;28;20493;-69
2023/10/22 11:49:50;;;;;;;5.15;0.77;;;20.60;99.90;;;;;;4986790;28;20426;-68
2023/10/22 11:52:37;;;;;;;4.90;0.60;;;20.20;99.90;;;;;;4990222;28;20410;-69
2023/10/22 11:55:07;;;;;;;5.03;0.50;;;20.00;99.90;;;;;;4987331;28;20569;-69
2023/10/22 11:57:37;;;;;;;5.30;0.50;;;19.80;99.90;;;;;;4991040;28;20459;-68
2023/10/22 12:00:09;;;;;;;6.20;0.60;;;19.30;99.90;;;;;;4992679;28;20425;-68
2023/10/22 12:02:35;;;;;;;4.30;0.50;;;18.80;99.90;;;;;;4991775;28;20426;-68
2023/10/22 12:05:01;;;;;;;5.30;0.70;;;18.60;99.90;;;;;;4991652;28;20406;-68
2023/10/22 12:07:26;;;;;;;6.50;0.50;;;18.40;99.90;;;;;;4990753;28;20396;-69
2023/10/22 12:09:52;;;;;;;4.40;0.50;;;18.30;99.90;;;;;;4986095;28;20406;-69
2023/10/22 12:12:19;;;;;;;6.43;0.67;;;18.50;99.90;;;;;;4991987;28;20900;-69
2023/10/22 12:14:45;;;;;;;6.20;0.60;;;18.70;99.90;;;;;;4983524;28;20413;-69
2023/10/22 12:17:11;;;;;;;6.97;1.10;;;19.20;99.90;;;;;;4989492;28;20410;-69
2023/10/22 12:19:36;;;;;;;6.30;0.80;;;19.70;99.90;;;;;;4989824;28;20441;-70
2023/10/22 12:22:02;;;;;;;4.47;0.57;;;19.80;99.90;;;;;;4990365;28;20422;-69
2023/10/22 12:24:28;;;;;;;6.10;0.60;;;19.80;99.90;;;;;;4986114;28;20920;-69
2023/10/22 12:26:54;;;;;;;6.77;0.90;;;19.60;99.90;;;;;;4991183;28;20409;-69
2023/10/22 12:29:21;;;;;;;5.40;0.50;;;19.40;99.90;;;;;;4991378;28;20480;-69
2023/10/22 12:31:46;;;;;;;4.90;0.80;;;19.90;99.90;;;;;;4991834;28;20506;-69
2023/10/22 12:34:12;;;;;;;4.70;0.60;;;20.10;99.90;;;;;;4990077;28;20442;-69
2023/10/22 12:36:38;;;;;;;5.13;0.70;;;20.10;99.90;;;;;;4989498;28;20406;-69
2023/10/22 12:39:07;;;;;;;6.00;1.20;;;20.30;99.90;;;;;;4984320;28;20477;-69
2023/10/22 12:41:33;;;;;;;5.05;0.60;;;20.60;99.90;;;;;;4977781;28;20423;-70
2023/10/22 12:44:00;;;;;;;5.30;0.70;;;20.70;99.90;;;;;;4987808;28;20420;-69
2023/10/22 12:46:27;;;;;;;6.80;0.60;;;20.80;99.90;;;;;;4990781;28;20722;-69
2023/10/22 12:48:52;;;;;;;4.40;0.43;;;20.70;99.90;;;;;;4990652;28;20421;-70
2023/10/22 12:51:18;;;;;;;5.10;0.50;;;20.40;99.90;;;;;;4987967;28;20414;-69
2023/10/22 12:53:46;;;;;;;4.60;0.60;;;20.30;99.90;;;;;;4990048;28;20498;-69